UATG/GUW METAR and TAF weather

Enter ICAO airport designator
Station Type Date Time Source
UATG METAR 2024/07/13 04:00 UTC NOAA

UATG 130400Z 34012MPS CAVOK 20/09 Q1003 NOSIG RMK QFE754/1005


Station Type Date Time Source
UATG Decoded METAR 2024/07/13 04:00 UTC NOAA

Station name not available
Jul 13, 2024 - 12:00 AM EDT / 2024.07.13 0400 UTC
Wind: from the NNW (340 degrees) at 27 MPH (23 KT):0
Visibility: greater than 7 mile(s):0
Temperature: 68 F (20 C)
Dew Point: 48 F (9 C)
Relative Humidity: 49%
Pressure (altimeter): 29.62 in. Hg (1003 hPa)
ob: UATG 130400Z 34012MPS CAVOK 20/09 Q1003 NOSIG RMK QFE754/1005
cycle: 4

Station Type Date Time Source
UATG TAF 2024/07/12 18:21 UTC NOAA